sensor_id;sensor_type;location;lat;lon;timestamp;pressure;altitude;pressure_sealevel;temperature;humidity
37064;BME280;23211;53.912;9.138;2022-10-03T00:04:17;102078.63;;;17.65;58.72
37064;BME280;23211;53.912;9.138;2022-10-03T00:07:29;102078.13;;;17.68;58.82
37064;BME280;23211;53.912;9.138;2022-10-03T00:10:35;102085.72;;;17.66;58.81
37064;BME280;23211;53.912;9.138;2022-10-03T00:16:47;102092.22;;;17.75;58.94
37064;BME280;23211;53.912;9.138;2022-10-03T00:19:49;102100.63;;;17.79;59.21
37064;BME280;23211;53.912;9.138;2022-10-03T00:22:58;102117.44;;;17.81;59.28
37064;BME280;23211;53.912;9.138;2022-10-03T00:26:07;102126.69;;;17.85;59.48
37064;BME280;23211;53.912;9.138;2022-10-03T00:35:16;102119.09;;;17.97;59.05
37064;BME280;23211;53.912;9.138;2022-10-03T00:38:28;102122.63;;;17.97;59.00
37064;BME280;23211;53.912;9.138;2022-10-03T00:54:14;102124.50;;;17.92;58.25
37064;BME280;23211;53.912;9.138;2022-10-03T00:57:35;102118.53;;;17.85;58.25
37064;BME280;23211;53.912;9.138;2022-10-03T01:00:28;102123.97;;;17.85;58.13
37064;BME280;23211;53.912;9.138;2022-10-03T01:06:27;102120.97;;;17.76;58.04
37064;BME280;23211;53.912;9.138;2022-10-03T01:09:39;102130.44;;;17.74;58.08
37064;BME280;23211;53.912;9.138;2022-10-03T01:15:28;102145.38;;;17.76;58.15
37064;BME280;23211;53.912;9.138;2022-10-03T01:19:26;102138.56;;;17.74;58.24
37064;BME280;23211;53.912;9.138;2022-10-03T01:21:49;102138.03;;;17.71;58.40
37064;BME280;23211;53.912;9.138;2022-10-03T01:31:10;102142.34;;;17.67;58.45
37064;BME280;23211;53.912;9.138;2022-10-03T01:34:12;102142.03;;;17.64;58.57
37064;BME280;23211;53.912;9.138;2022-10-03T01:37:11;102148.25;;;17.59;58.71
37064;BME280;23211;53.912;9.138;2022-10-03T01:40:27;102143.91;;;17.53;58.75
37064;BME280;23211;53.912;9.138;2022-10-03T01:46:37;102156.09;;;17.51;58.52
37064;BME280;23211;53.912;9.138;2022-10-03T01:49:37;102162.59;;;17.50;58.40
37064;BME280;23211;53.912;9.138;2022-10-03T01:52:38;102160.16;;;17.48;58.39
37064;BME280;23211;53.912;9.138;2022-10-03T01:55:33;102169.09;;;17.49;58.32
37064;BME280;23211;53.912;9.138;2022-10-03T02:04:44;102185.59;;;17.42;58.17
37064;BME280;23211;53.912;9.138;2022-10-03T02:07:54;102183.13;;;17.35;58.29
37064;BME280;23211;53.912;9.138;2022-10-03T02:10:49;102184.19;;;17.34;58.45
37064;BME280;23211;53.912;9.138;2022-10-03T02:13:47;102190.16;;;17.31;58.43
37064;BME280;23211;53.912;9.138;2022-10-03T02:16:56;102187.97;;;17.28;58.52
37064;BME280;23211;53.912;9.138;2022-10-03T02:19:59;102187.44;;;17.31;58.62
37064;BME280;23211;53.912;9.138;2022-10-03T02:22:51;102196.66;;;17.30;58.26
37064;BME280;23211;53.912;9.138;2022-10-03T02:25:42;102194.50;;;17.32;58.43
37064;BME280;23211;53.912;9.138;2022-10-03T02:28:58;102191.22;;;17.30;58.34
37064;BME280;23211;53.912;9.138;2022-10-03T02:38:32;102197.16;;;17.22;58.56
37064;BME280;23211;53.912;9.138;2022-10-03T02:41:36;102192.53;;;17.23;58.43
37064;BME280;23211;53.912;9.138;2022-10-03T03:06:30;102213.59;;;17.11;58.99
37064;BME280;23211;53.912;9.138;2022-10-03T03:12:54;102219.81;;;17.11;59.04
37064;BME280;23211;53.912;9.138;2022-10-03T03:16:04;102223.63;;;17.10;59.06
37064;BME280;23211;53.912;9.138;2022-10-03T03:19:04;102221.47;;;17.12;59.00
37064;BME280;23211;53.912;9.138;2022-10-03T03:22:09;102219.00;;;17.11;59.17
37064;BME280;23211;53.912;9.138;2022-10-03T03:28:12;102217.69;;;17.13;59.04
37064;BME280;23211;53.912;9.138;2022-10-03T03:31:15;102220.09;;;17.10;59.06
37064;BME280;23211;53.912;9.138;2022-10-03T03:34:27;102230.91;;;17.10;59.09
37064;BME280;23211;53.912;9.138;2022-10-03T03:43:28;102225.50;;;17.10;58.98
37064;BME280;23211;53.912;9.138;2022-10-03T03:46:43;102226.03;;;17.06;59.10
37064;BME280;23211;53.912;9.138;2022-10-03T04:02:42;102230.34;;;17.02;59.19
37064;BME280;23211;53.912;9.138;2022-10-03T04:05:41;102238.75;;;17.06;59.02
37064;BME280;23211;53.912;9.138;2022-10-03T04:08:58;102248.78;;;17.05;59.08
37064;BME280;23211;53.912;9.138;2022-10-03T04:12:34;102249.53;;;17.01;59.21
37064;BME280;23211;53.912;9.138;2022-10-03T04:15:33;102252.00;;;17.02;59.09
37064;BME280;23211;53.912;9.138;2022-10-03T04:22:13;102260.91;;;16.98;59.20
37064;BME280;23211;53.912;9.138;2022-10-03T04:34:49;102256.00;;;16.95;59.22
37064;BME280;23211;53.912;9.138;2022-10-03T04:46:39;102258.72;;;16.95;59.30
37064;BME280;23211;53.912;9.138;2022-10-03T04:49:38;102258.16;;;16.93;59.16
37064;BME280;23211;53.912;9.138;2022-10-03T04:52:36;102259.22;;;16.92;59.41
37064;BME280;23211;53.912;9.138;2022-10-03T04:55:28;102258.16;;;16.93;59.48
37064;BME280;23211;53.912;9.138;2022-10-03T04:58:35;102257.34;;;16.92;59.48
37064;BME280;23211;53.912;9.138;2022-10-03T05:01:24;102263.00;;;16.91;59.76
37064;BME280;23211;53.912;9.138;2022-10-03T05:04:35;102258.09;;;16.88;59.54
37064;BME280;23211;53.912;9.138;2022-10-03T05:07:59;102260.81;;;16.88;59.62
37064;BME280;23211;53.912;9.138;2022-10-03T05:21:10;102267.94;;;16.99;60.50
37064;BME280;23211;53.912;9.138;2022-10-03T05:36:14;102311.53;;;17.34;60.82
37064;BME280;23211;53.912;9.138;2022-10-03T05:39:25;102306.13;;;17.34;60.94
37064;BME280;23211;53.912;9.138;2022-10-03T05:46:13;102293.16;;;17.42;60.81
37064;BME280;23211;53.912;9.138;2022-10-03T05:49:02;102301.84;;;17.44;60.98
37064;BME280;23211;53.912;9.138;2022-10-03T05:52:01;102305.41;;;17.49;60.81
37064;BME280;23211;53.912;9.138;2022-10-03T05:55:35;102301.31;;;17.47;60.94
37064;BME280;23211;53.912;9.138;2022-10-03T05:58:30;102307.06;;;17.55;60.94
37064;BME280;23211;53.912;9.138;2022-10-03T06:01:34;102302.19;;;17.57;61.04
37064;BME280;23211;53.912;9.138;2022-10-03T06:08:11;102305.50;;;17.64;60.98
37064;BME280;23211;53.912;9.138;2022-10-03T06:11:00;102307.44;;;17.69;60.78
37064;BME280;23211;53.912;9.138;2022-10-03T06:14:05;102310.69;;;17.71;61.05
37064;BME280;23211;53.912;9.138;2022-10-03T06:19:57;102311.84;;;17.80;61.08
37064;BME280;23211;53.912;9.138;2022-10-03T06:23:10;102318.63;;;17.83;61.05
37064;BME280;23211;53.912;9.138;2022-10-03T06:29:23;102318.38;;;17.84;61.39
37064;BME280;23211;53.912;9.138;2022-10-03T06:35:48;102327.63;;;17.93;61.34
37064;BME280;23211;53.912;9.138;2022-10-03T06:42:24;102330.63;;;17.97;61.46
37064;BME280;23211;53.912;9.138;2022-10-03T06:48:27;102329.59;;;18.08;61.79
37064;BME280;23211;53.912;9.138;2022-10-03T07:32:57;102349.09;;;19.08;61.97
37064;BME280;23211;53.912;9.138;2022-10-03T07:36:30;102348.28;;;19.13;61.99
37064;BME280;23211;53.912;9.138;2022-10-03T07:55:24;102367.53;;;19.77;61.58
37064;BME280;23211;53.912;9.138;2022-10-03T07:58:30;102366.97;;;19.85;61.16
37064;BME280;23211;53.912;9.138;2022-10-03T08:01:33;102365.59;;;19.93;61.00
37064;BME280;23211;53.912;9.138;2022-10-03T08:04:35;102374.28;;;20.00;60.85
37064;BME280;23211;53.912;9.138;2022-10-03T08:17:04;102390.25;;;20.22;60.11
37064;BME280;23211;53.912;9.138;2022-10-03T08:26:27;102402.72;;;20.33;60.04
37064;BME280;23211;53.912;9.138;2022-10-03T08:45:10;102419.69;;;20.84;60.02
37064;BME280;23211;53.912;9.138;2022-10-03T08:48:33;102418.81;;;20.94;59.89
37064;BME280;23211;53.912;9.138;2022-10-03T09:01:21;102433.25;;;21.34;59.12
37064;BME280;23211;53.912;9.138;2022-10-03T09:26:41;102442.56;;;21.62;57.07
37064;BME280;23211;53.912;9.138;2022-10-03T09:42:09;102436.88;;;21.58;57.43
37064;BME280;23211;53.912;9.138;2022-10-03T09:45:16;102443.13;;;21.59;57.25
37064;BME280;23211;53.912;9.138;2022-10-03T09:51:29;102447.78;;;21.58;57.43
37064;BME280;23211;53.912;9.138;2022-10-03T10:00:07;102433.13;;;21.78;57.51
37064;BME280;23211;53.912;9.138;2022-10-03T10:06:25;102459.78;;;21.86;57.47
37064;BME280;23211;53.912;9.138;2022-10-03T10:31:23;102438.06;;;21.76;56.63
37064;BME280;23211;53.912;9.138;2022-10-03T10:34:50;102439.69;;;21.77;57.35
37064;BME280;23211;53.912;9.138;2022-10-03T10:41:36;102435.47;;;21.90;57.27
37064;BME280;23211;53.912;9.138;2022-10-03T10:45:28;102433.50;;;21.95;57.40
37064;BME280;23211;53.912;9.138;2022-10-03T10:58:24;102432.31;;;22.30;57.09
37064;BME280;23211;53.912;9.138;2022-10-03T11:08:40;102429.03;;;22.52;56.11
37064;BME280;23211;53.912;9.138;2022-10-03T11:12:18;102441.81;;;22.57;55.97
37064;BME280;23211;53.912;9.138;2022-10-03T11:37:45;102433.59;;;22.80;55.51
37064;BME280;23211;53.912;9.138;2022-10-03T11:47:11;102435.78;;;22.78;54.85
37064;BME280;23211;53.912;9.138;2022-10-03T11:50:56;102439.09;;;22.75;54.68
37064;BME280;23211;53.912;9.138;2022-10-03T11:56:43;102438.50;;;22.78;54.73
37064;BME280;23211;53.912;9.138;2022-10-03T11:59:33;102436.59;;;22.79;54.67
37064;BME280;23211;53.912;9.138;2022-10-03T12:05:58;102436.97;;;22.72;54.72
37064;BME280;23211;53.912;9.138;2022-10-03T12:09:16;102442.72;;;22.71;55.15
37064;BME280;23211;53.912;9.138;2022-10-03T12:24:53;102438.69;;;22.87;55.00
37064;BME280;23211;53.912;9.138;2022-10-03T12:30:46;102441.50;;;22.82;54.27
37064;BME280;23211;53.912;9.138;2022-10-03T12:33:47;102451.38;;;22.78;54.42
37064;BME280;23211;53.912;9.138;2022-10-03T12:36:44;102447.53;;;22.79;54.58
37064;BME280;23211;53.912;9.138;2022-10-03T12:39:39;102440.44;;;22.78;54.34
37064;BME280;23211;53.912;9.138;2022-10-03T12:42:33;102442.63;;;22.81;54.12
37064;BME280;23211;53.912;9.138;2022-10-03T12:45:31;102436.88;;;22.77;53.87
37064;BME280;23211;53.912;9.138;2022-10-03T12:48:43;102446.78;;;22.73;54.27
37064;BME280;23211;53.912;9.138;2022-10-03T12:51:51;102454.47;;;22.71;54.44
37064;BME280;23211;53.912;9.138;2022-10-03T12:54:50;102444.72;;;22.65;54.16
37064;BME280;23211;53.912;9.138;2022-10-03T13:03:35;102431.50;;;22.30;54.56
37064;BME280;23211;53.912;9.138;2022-10-03T13:07:01;102442.53;;;22.19;54.93
37064;BME280;23211;53.912;9.138;2022-10-03T13:16:24;102457.69;;;22.07;55.64
37064;BME280;23211;53.912;9.138;2022-10-03T13:19:20;102450.78;;;22.14;55.39
37064;BME280;23211;53.912;9.138;2022-10-03T13:22:23;102452.66;;;22.19;55.57
37064;BME280;23211;53.912;9.138;2022-10-03T13:25:34;102449.63;;;22.21;55.28
37064;BME280;23211;53.912;9.138;2022-10-03T13:29:05;102443.72;;;22.13;55.53
37064;BME280;23211;53.912;9.138;2022-10-03T13:38:01;102432.22;;;22.16;55.22
37064;BME280;23211;53.912;9.138;2022-10-03T13:41:05;102432.16;;;22.22;54.99
37064;BME280;23211;53.912;9.138;2022-10-03T13:44:10;102429.66;;;22.25;55.18
37064;BME280;23211;53.912;9.138;2022-10-03T13:50:32;102427.22;;;22.24;54.77
37064;BME280;23211;53.912;9.138;2022-10-03T13:56:58;102435.69;;;22.22;54.83
37064;BME280;23211;53.912;9.138;2022-10-03T14:00:03;102430.75;;;22.24;54.90
37064;BME280;23211;53.912;9.138;2022-10-03T14:06:03;102436.50;;;22.23;55.08
37064;BME280;23211;53.912;9.138;2022-10-03T14:12:07;102434.28;;;22.25;54.99
37064;BME280;23211;53.912;9.138;2022-10-03T14:15:24;102429.66;;;22.25;54.71
37064;BME280;23211;53.912;9.138;2022-10-03T14:21:39;102426.09;;;22.25;54.95
37064;BME280;23211;53.912;9.138;2022-10-03T14:27:36;102427.44;;;22.27;54.78
37064;BME280;23211;53.912;9.138;2022-10-03T14:30:34;102431.56;;;22.25;54.58
37064;BME280;23211;53.912;9.138;2022-10-03T14:33:40;102426.41;;;22.23;54.65
37064;BME280;23211;53.912;9.138;2022-10-03T14:45:16;102420.34;;;22.26;54.40
37064;BME280;23211;53.912;9.138;2022-10-03T14:48:06;102423.38;;;22.25;54.53
37064;BME280;23211;53.912;9.138;2022-10-03T14:51:09;102425.34;;;22.19;54.22
37064;BME280;23211;53.912;9.138;2022-10-03T14:54:01;102419.38;;;22.17;54.55
37064;BME280;23211;53.912;9.138;2022-10-03T14:56:50;102418.03;;;22.14;54.59
37064;BME280;23211;53.912;9.138;2022-10-03T14:59:37;102417.81;;;22.11;54.66
37064;BME280;23211;53.912;9.138;2022-10-03T15:02:30;102414.03;;;22.07;54.71
37064;BME280;23211;53.912;9.138;2022-10-03T15:05:32;102410.25;;;22.03;54.77
37064;BME280;23211;53.912;9.138;2022-10-03T15:08:18;102402.72;;;21.90;56.06
37064;BME280;23211;53.912;9.138;2022-10-03T15:11:06;102406.94;;;22.06;54.99
37064;BME280;23211;53.912;9.138;2022-10-03T15:13:55;102403.63;;;22.09;54.99
37064;BME280;23211;53.912;9.138;2022-10-03T15:17:14;102402.06;;;22.03;55.12
37064;BME280;23211;53.912;9.138;2022-10-03T15:20:02;102396.03;;;22.06;55.06
37064;BME280;23211;53.912;9.138;2022-10-03T15:22:52;102406.94;;;22.06;54.81
37064;BME280;23211;53.912;9.138;2022-10-03T15:25:40;102397.41;;;22.03;54.53
37064;BME280;23211;53.912;9.138;2022-10-03T15:28:37;102394.19;;;21.96;54.56
37064;BME280;23211;53.912;9.138;2022-10-03T15:31:34;102391.53;;;21.91;53.95
37064;BME280;23211;53.912;9.138;2022-10-03T15:34:29;102385.88;;;21.82;54.12
37064;BME280;23211;53.912;9.138;2022-10-03T15:37:19;102403.13;;;21.78;54.16
37064;BME280;23211;53.912;9.138;2022-10-03T15:40:30;102400.78;;;21.66;54.39
37064;BME280;23211;53.912;9.138;2022-10-03T15:43:27;102404.09;;;21.63;54.19
37064;BME280;23211;53.912;9.138;2022-10-03T15:46:35;102410.44;;;21.53;54.34
37064;BME280;23211;53.912;9.138;2022-10-03T15:49:35;102402.59;;;21.47;54.41
37064;BME280;23211;53.912;9.138;2022-10-03T15:52:29;102403.41;;;21.47;54.37
37064;BME280;23211;53.912;9.138;2022-10-03T15:55:20;102404.81;;;21.45;54.64
37064;BME280;23211;53.912;9.138;2022-10-03T16:01:22;102397.78;;;21.39;54.76
37064;BME280;23211;53.912;9.138;2022-10-03T16:04:20;102391.78;;;21.37;54.95
37064;BME280;23211;53.912;9.138;2022-10-03T16:07:11;102398.34;;;21.36;54.74
37064;BME280;23211;53.912;9.138;2022-10-03T16:12:53;102402.78;;;21.21;54.91
37064;BME280;23211;53.912;9.138;2022-10-03T16:18:48;102402.34;;;21.09;54.77
37064;BME280;23211;53.912;9.138;2022-10-03T16:21:46;102401.28;;;21.05;54.84
37064;BME280;23211;53.912;9.138;2022-10-03T16:24:40;102401.59;;;20.99;54.96
37064;BME280;23211;53.912;9.138;2022-10-03T16:27:31;102405.41;;;20.98;54.95
37064;BME280;23211;53.912;9.138;2022-10-03T16:30:25;102402.72;;;20.92;55.00
37064;BME280;23211;53.912;9.138;2022-10-03T16:33:19;102403.59;;;20.88;55.09
37064;BME280;23211;53.912;9.138;2022-10-03T16:36:09;102404.16;;;20.85;55.13
37064;BME280;23211;53.912;9.138;2022-10-03T16:39:02;102394.63;;;20.82;55.17
37064;BME280;23211;53.912;9.138;2022-10-03T16:41:51;102401.41;;;20.80;55.36
37064;BME280;23211;53.912;9.138;2022-10-03T16:47:34;102395.19;;;20.74;55.40
37064;BME280;23211;53.912;9.138;2022-10-03T16:50:21;102385.66;;;20.72;55.47
37064;BME280;23211;53.912;9.138;2022-10-03T16:53:10;102382.69;;;20.68;55.43
37064;BME280;23211;53.912;9.138;2022-10-03T16:56:03;102390.38;;;20.61;55.48
37064;BME280;23211;53.912;9.138;2022-10-03T16:58:57;102392.31;;;20.55;55.36
37064;BME280;23211;53.912;9.138;2022-10-03T17:01:50;102387.69;;;20.51;55.46
37064;BME280;23211;53.912;9.138;2022-10-03T17:04:44;102397.25;;;20.48;55.45
37064;BME280;23211;53.912;9.138;2022-10-03T17:07:52;102395.09;;;20.40;55.80
37064;BME280;23211;53.912;9.138;2022-10-03T17:10:39;102393.72;;;20.43;55.86
37064;BME280;23211;53.912;9.138;2022-10-03T17:13:38;102391.81;;;20.38;55.68
37064;BME280;23211;53.912;9.138;2022-10-03T17:16:40;102377.69;;;20.31;55.92
37064;BME280;23211;53.912;9.138;2022-10-03T17:19:38;102380.69;;;20.29;55.74
37064;BME280;23211;53.912;9.138;2022-10-03T17:22:35;102390.25;;;20.22;56.04
37064;BME280;23211;53.912;9.138;2022-10-03T17:28:32;102382.13;;;20.12;56.04
37064;BME280;23211;53.912;9.138;2022-10-03T17:31:26;102380.78;;;20.09;56.04
37064;BME280;23211;53.912;9.138;2022-10-03T17:34:28;102389.22;;;20.03;56.22
37064;BME280;23211;53.912;9.138;2022-10-03T17:37:50;102385.44;;;19.99;56.49
37064;BME280;23211;53.912;9.138;2022-10-03T17:47:20;102385.44;;;19.93;56.81
37064;BME280;23211;53.912;9.138;2022-10-03T17:50:18;102380.81;;;19.94;56.89
37064;BME280;23211;53.912;9.138;2022-10-03T17:53:18;102386.25;;;19.94;56.71
37064;BME280;23211;53.912;9.138;2022-10-03T17:56:12;102390.34;;;19.96;56.87
37064;BME280;23211;53.912;9.138;2022-10-03T17:59:05;102386.53;;;19.98;56.65
37064;BME280;23211;53.912;9.138;2022-10-03T18:02:03;102382.16;;;19.96;56.61
37064;BME280;23211;53.912;9.138;2022-10-03T18:05:05;102386.53;;;19.92;56.65
37064;BME280;23211;53.912;9.138;2022-10-03T18:07:55;102381.63;;;19.94;56.62
37064;BME280;23211;53.912;9.138;2022-10-03T18:10:47;102378.91;;;19.94;56.67
37064;BME280;23211;53.912;9.138;2022-10-03T18:13:50;102377.84;;;19.90;56.67
37064;BME280;23211;53.912;9.138;2022-10-03T18:16:52;102379.47;;;19.91;56.82
37064;BME280;23211;53.912;9.138;2022-10-03T18:22:46;102378.38;;;19.92;56.56
37064;BME280;23211;53.912;9.138;2022-10-03T18:25:59;102378.66;;;19.86;56.44
37064;BME280;23211;53.912;9.138;2022-10-03T18:29:00;102372.41;;;19.85;56.43
37064;BME280;23211;53.912;9.138;2022-10-03T18:35:11;102371.34;;;19.76;56.36
37064;BME280;23211;53.912;9.138;2022-10-03T18:40:57;102378.16;;;19.69;56.28
37064;BME280;23211;53.912;9.138;2022-10-03T18:43:45;102374.09;;;19.66;56.08
37064;BME280;23211;53.912;9.138;2022-10-03T18:46:38;102372.47;;;19.60;56.32
37064;BME280;23211;53.912;9.138;2022-10-03T18:49:28;102369.47;;;19.56;56.54
37064;BME280;23211;53.912;9.138;2022-10-03T18:52:20;102373.03;;;19.52;56.38
37064;BME280;23211;53.912;9.138;2022-10-03T18:55:43;102359.41;;;19.47;56.47
37064;BME280;23211;53.912;9.138;2022-10-03T18:58:33;102358.06;;;19.44;56.54
37064;BME280;23211;53.912;9.138;2022-10-03T19:04:15;102375.19;;;19.40;56.80
37064;BME280;23211;53.912;9.138;2022-10-03T19:07:18;102364.84;;;19.37;56.76
37064;BME280;23211;53.912;9.138;2022-10-03T19:13:16;102366.50;;;19.32;56.85
37064;BME280;23211;53.912;9.138;2022-10-03T19:16:31;102369.19;;;19.32;56.70
37064;BME280;23211;53.912;9.138;2022-10-03T19:22:05;102367.84;;;19.25;56.73
37064;BME280;23211;53.912;9.138;2022-10-03T19:24:51;102366.75;;;19.21;56.73
37064;BME280;23211;53.912;9.138;2022-10-03T19:27:44;102373.00;;;19.16;56.89
37064;BME280;23211;53.912;9.138;2022-10-03T19:30:34;102379.00;;;19.18;56.83
37064;BME280;23211;53.912;9.138;2022-10-03T19:33:24;102382.78;;;19.17;56.92
37064;BME280;23211;53.912;9.138;2022-10-03T19:36:17;102373.28;;;19.15;56.95
37064;BME280;23211;53.912;9.138;2022-10-03T19:39:06;102365.94;;;19.15;56.88
37064;BME280;23211;53.912;9.138;2022-10-03T19:42:05;102368.41;;;19.12;56.91
37064;BME280;23211;53.912;9.138;2022-10-03T19:44:59;102365.69;;;19.12;56.97
37064;BME280;23211;53.912;9.138;2022-10-03T19:47:50;102369.75;;;19.09;57.18
37064;BME280;23211;53.912;9.138;2022-10-03T19:50:37;102373.56;;;19.08;56.92
37064;BME280;23211;53.912;9.138;2022-10-03T19:53:23;102371.66;;;19.09;56.82
37064;BME280;23211;53.912;9.138;2022-10-03T19:56:19;102371.09;;;19.07;56.81
37064;BME280;23211;53.912;9.138;2022-10-03T19:59:13;102371.09;;;19.07;56.81
37064;BME280;23211;53.912;9.138;2022-10-03T20:02:04;102365.66;;;19.07;56.62
37064;BME280;23211;53.912;9.138;2022-10-03T20:04:52;102361.31;;;19.06;56.67
37064;BME280;23211;53.912;9.138;2022-10-03T20:07:43;102358.06;;;19.04;56.55
37064;BME280;23211;53.912;9.138;2022-10-03T20:10:39;102362.13;;;19.01;56.66
37064;BME280;23211;53.912;9.138;2022-10-03T20:13:28;102362.13;;;19.01;56.56
37064;BME280;23211;53.912;9.138;2022-10-03T20:16:19;102357.25;;;18.98;56.70
37064;BME280;23211;53.912;9.138;2022-10-03T20:19:22;102356.69;;;18.96;56.72
37064;BME280;23211;53.912;9.138;2022-10-03T20:22:10;102352.63;;;18.83;57.19
37064;BME280;23211;53.912;9.138;2022-10-03T20:24:58;102355.06;;;18.95;56.96
37064;BME280;23211;53.912;9.138;2022-10-03T20:27:47;102349.63;;;18.95;56.99
37064;BME280;23211;53.912;9.138;2022-10-03T20:30:46;102348.28;;;18.92;56.85
37064;BME280;23211;53.912;9.138;2022-10-03T20:33:34;102341.50;;;18.95;57.00
37064;BME280;23211;53.912;9.138;2022-10-03T20:36:30;102349.09;;;18.93;56.67
37064;BME280;23211;53.912;9.138;2022-10-03T20:39:22;102352.91;;;18.92;56.75
37064;BME280;23211;53.912;9.138;2022-10-03T20:42:18;102350.19;;;18.87;56.76
37064;BME280;23211;53.912;9.138;2022-10-03T20:45:16;102347.72;;;18.85;56.76
37064;BME280;23211;53.912;9.138;2022-10-03T20:48:13;102351.53;;;18.84;56.58
37064;BME280;23211;53.912;9.138;2022-10-03T20:51:01;102346.09;;;18.84;56.65
37064;BME280;23211;53.912;9.138;2022-10-03T20:53:47;102354.50;;;18.83;56.57
37064;BME280;23211;53.912;9.138;2022-10-03T20:56:50;102351.25;;;18.76;56.67
37064;BME280;23211;53.912;9.138;2022-10-03T21:00:02;102349.59;;;18.70;56.87
37064;BME280;23211;53.912;9.138;2022-10-03T21:03:00;102353.69;;;18.67;56.90
37064;BME280;23211;53.912;9.138;2022-10-03T21:05:51;102353.94;;;18.65;57.00
37064;BME280;23211;53.912;9.138;2022-10-03T21:08:39;102355.28;;;18.63;56.94
37064;BME280;23211;53.912;9.138;2022-10-03T21:11:27;102347.41;;;18.61;57.26
37064;BME280;23211;53.912;9.138;2022-10-03T21:14:21;102351.72;;;18.57;57.20
37064;BME280;23211;53.912;9.138;2022-10-03T21:17:14;102350.09;;;18.56;57.40
37064;BME280;23211;53.912;9.138;2022-10-03T21:20:06;102352.53;;;18.53;57.48
37064;BME280;23211;53.912;9.138;2022-10-03T21:23:00;102354.16;;;18.54;57.46
37064;BME280;23211;53.912;9.138;2022-10-03T21:25:48;102352.53;;;18.53;57.58
37064;BME280;23211;53.912;9.138;2022-10-03T21:28:36;102351.72;;;18.52;57.69
37064;BME280;23211;53.912;9.138;2022-10-03T21:31:48;102341.38;;;18.44;58.18
37064;BME280;23211;53.912;9.138;2022-10-03T21:44:03;102329.16;;;18.42;58.58
37064;BME280;23211;53.912;9.138;2022-10-03T21:46:58;102315.31;;;18.43;58.70
37064;BME280;23211;53.912;9.138;2022-10-03T21:49:58;102322.38;;;18.44;58.76
37064;BME280;23211;53.912;9.138;2022-10-03T21:53:02;102315.88;;;18.45;58.63
37064;BME280;23211;53.912;9.138;2022-10-03T21:56:05;102313.44;;;18.49;58.77
37064;BME280;23211;53.912;9.138;2022-10-03T21:59:21;102314.50;;;18.48;58.59
37064;BME280;23211;53.912;9.138;2022-10-03T22:02:18;102315.59;;;18.52;58.70
37064;BME280;23211;53.912;9.138;2022-10-03T22:08:25;102311.53;;;18.54;58.80
37064;BME280;23211;53.912;9.138;2022-10-03T22:11:32;102312.09;;;18.56;58.69
37064;BME280;23211;53.912;9.138;2022-10-03T22:14:42;102308.28;;;18.57;58.57
37064;BME280;23211;53.912;9.138;2022-10-03T22:20:35;102309.16;;;18.63;58.58
37064;BME280;23211;53.912;9.138;2022-10-03T22:26:46;102302.03;;;18.57;58.45
37064;BME280;23211;53.912;9.138;2022-10-03T22:38:06;102306.94;;;18.55;58.33
37064;BME280;23211;53.912;9.138;2022-10-03T22:40:54;102298.25;;;18.53;58.25
37064;BME280;23211;53.912;9.138;2022-10-03T22:43:42;102298.50;;;18.51;58.33
37064;BME280;23211;53.912;9.138;2022-10-03T22:46:30;102291.44;;;18.50;58.35
37064;BME280;23211;53.912;9.138;2022-10-03T22:49:38;102290.34;;;18.46;58.25
37064;BME280;23211;53.912;9.138;2022-10-03T22:52:35;102286.56;;;18.47;58.28
37064;BME280;23211;53.912;9.138;2022-10-03T22:55:23;102286.56;;;18.47;58.29
37064;BME280;23211;53.912;9.138;2022-10-03T22:58:10;102283.84;;;18.47;58.15
37064;BME280;23211;53.912;9.138;2022-10-03T23:00:58;102277.88;;;18.45;58.07
37064;BME280;23211;53.912;9.138;2022-10-03T23:03:44;102286.81;;;18.46;58.06
37064;BME280;23211;53.912;9.138;2022-10-03T23:12:46;102291.44;;;18.40;58.01
37064;BME280;23211;53.912;9.138;2022-10-03T23:15:34;102280.56;;;18.40;57.89
37064;BME280;23211;53.912;9.138;2022-10-03T23:21:09;102274.34;;;18.40;58.07
37064;BME280;23211;53.912;9.138;2022-10-03T23:24:00;102274.59;;;18.38;58.01
37064;BME280;23211;53.912;9.138;2022-10-03T23:32:56;102270.78;;;18.34;58.00
37064;BME280;23211;53.912;9.138;2022-10-03T23:35:46;102273.50;;;18.34;57.99
37064;BME280;23211;53.912;9.138;2022-10-03T23:42:14;102262.91;;;18.27;58.07
37064;BME280;23211;53.912;9.138;2022-10-03T23:44:59;102250.97;;;18.23;58.29
37064;BME280;23211;53.912;9.138;2022-10-03T23:48:05;102250.69;;;18.25;58.26
37064;BME280;23211;53.912;9.138;2022-10-03T23:50:58;102245.81;;;18.27;58.34
37064;BME280;23211;53.912;9.138;2022-10-03T23:53:47;102242.28;;;18.26;58.32
37064;BME280;23211;53.912;9.138;2022-10-03T23:56:41;102241.47;;;18.26;58.29
37064;BME280;23211;53.912;9.138;2022-10-03T23:59:28;102246.38;;;18.29;58.26
